createdAt,value
2023-03-15T00:00:36.623Z,6.69
2023-03-15T00:03:25.796Z,6.82
2023-03-15T00:05:58.535Z,6.93
2023-03-15T00:08:33.334Z,6.92
2023-03-15T00:11:06.364Z,6.88
2023-03-15T00:13:38.928Z,6.93
2023-03-15T00:16:12.085Z,6.73
2023-03-15T00:18:45.275Z,6.71
2023-03-15T00:21:18.045Z,6.69
2023-03-15T00:23:50.795Z,6.60
2023-03-15T00:26:23.388Z,6.66
2023-03-15T00:28:56.142Z,6.64
2023-03-15T00:31:29.070Z,6.68
2023-03-15T00:34:02.081Z,6.68
2023-03-15T00:36:38.030Z,6.66
2023-03-15T00:39:10.844Z,6.50
2023-03-15T00:41:46.020Z,6.55
2023-03-15T00:44:18.922Z,6.60
2023-03-15T00:46:51.429Z,6.67
2023-03-15T00:49:23.929Z,6.62
2023-03-15T00:51:58.740Z,6.74
2023-03-15T00:54:33.547Z,6.66
2023-03-15T00:57:06.413Z,6.50
2023-03-15T00:59:39.410Z,6.52
2023-03-15T01:02:14.137Z,6.45
2023-03-15T01:04:46.886Z,6.40
2023-03-15T01:07:19.681Z,6.43
2023-03-15T01:09:53.828Z,6.37
2023-03-15T01:12:26.366Z,6.44
2023-03-15T01:14:59.689Z,6.49
2023-03-15T01:17:32.315Z,6.50
2023-03-15T01:20:10.214Z,6.35
2023-03-15T01:22:43.116Z,6.28
2023-03-15T01:25:16.028Z,6.32
2023-03-15T01:27:50.100Z,6.20
2023-03-15T01:30:22.605Z,6.15
2023-03-15T01:32:55.742Z,6.12
2023-03-15T01:35:29.333Z,6.14
2023-03-15T01:38:01.765Z,6.32
2023-03-15T01:40:36.513Z,6.31
2023-03-15T01:43:18.272Z,6.25
2023-03-15T01:46:08.138Z,6.12
2023-03-15T01:48:51.163Z,6.07
2023-03-15T01:51:35.766Z,6.11
2023-03-15T01:54:14.380Z,5.99
2023-03-15T01:56:53.427Z,6.11
2023-03-15T01:59:31.816Z,6.03
2023-03-15T02:02:06.461Z,6.01
2023-03-15T02:04:46.488Z,5.89
2023-03-15T02:07:23.132Z,5.97
2023-03-15T02:10:02.505Z,5.73
2023-03-15T02:12:40.026Z,5.65
2023-03-15T02:15:15.009Z,5.79
2023-03-15T02:17:52.150Z,5.97
2023-03-15T02:20:35.703Z,5.77
2023-03-15T02:23:13.717Z,5.78
2023-03-15T02:25:56.041Z,5.85
2023-03-15T02:28:29.203Z,5.71
2023-03-15T02:31:01.910Z,5.79
2023-03-15T02:33:40.414Z,6.03
2023-03-15T02:36:17.008Z,6.06
2023-03-15T02:38:51.417Z,6.10
2023-03-15T02:41:27.818Z,6.05
2023-03-15T02:44:05.030Z,6.04
2023-03-15T02:46:39.070Z,5.88
2023-03-15T02:49:13.015Z,5.94
2023-03-15T02:51:45.602Z,5.78
2023-03-15T02:54:18.154Z,5.83
2023-03-15T02:56:51.507Z,5.82
2023-03-15T02:59:24.093Z,5.97
2023-03-15T03:01:57.000Z,5.95
2023-03-15T03:04:29.494Z,5.84
2023-03-15T03:07:02.318Z,5.79
2023-03-15T03:09:40.583Z,5.80
2023-03-15T03:12:15.422Z,5.76
2023-03-15T03:14:48.489Z,5.75
2023-03-15T03:17:23.155Z,5.78
2023-03-15T03:19:55.600Z,5.81
2023-03-15T03:22:32.362Z,5.64
2023-03-15T03:25:07.044Z,5.59
2023-03-15T03:27:39.649Z,5.67
2023-03-15T03:30:16.395Z,5.61
2023-03-15T03:32:53.968Z,5.81
2023-03-15T03:35:26.826Z,5.84
2023-03-15T03:38:00.896Z,5.67
2023-03-15T03:40:39.649Z,5.66
2023-03-15T03:43:12.444Z,5.72
2023-03-15T03:45:45.339Z,5.69
2023-03-15T03:48:17.811Z,5.58
2023-03-15T03:50:50.785Z,5.56
2023-03-15T03:53:23.987Z,5.47
2023-03-15T03:55:56.470Z,5.51
2023-03-15T03:58:29.765Z,5.42
2023-03-15T04:01:07.415Z,5.27
2023-03-15T04:03:40.301Z,5.46
2023-03-15T04:06:17.366Z,5.43
2023-03-15T04:08:52.252Z,5.46
2023-03-15T04:11:36.460Z,5.39
2023-03-15T04:14:12.298Z,5.35
2023-03-15T04:16:45.787Z,5.37
2023-03-15T04:19:21.871Z,5.50
2023-03-15T04:21:55.323Z,5.44
2023-03-15T04:24:56.940Z,5.24
2023-03-15T04:27:59.038Z,5.28
2023-03-15T04:30:50.961Z,5.57
2023-03-15T04:33:46.510Z,5.56
2023-03-15T04:36:43.692Z,5.64
2023-03-15T04:39:22.237Z,5.74
2023-03-15T04:42:07.920Z,5.73
2023-03-15T04:45:00.650Z,5.62
2023-03-15T04:48:03.076Z,5.50
2023-03-15T04:50:57.864Z,5.66
2023-03-15T04:53:44.954Z,5.58
2023-03-15T04:56:38.168Z,5.26
2023-03-15T04:59:28.294Z,5.08
2023-03-15T05:02:29.985Z,5.26
2023-03-15T05:05:27.138Z,5.17
2023-03-15T05:08:13.557Z,5.01
2023-03-15T05:11:09.975Z,5.07
2023-03-15T05:14:02.088Z,5.02
2023-03-15T05:16:48.493Z,4.85
2023-03-15T05:19:36.703Z,4.96
2023-03-15T05:22:29.726Z,4.80
2023-03-15T05:25:20.923Z,4.70
2023-03-15T05:28:21.189Z,4.98
2023-03-15T05:31:29.448Z,4.82
2023-03-15T05:34:30.329Z,4.89
2023-03-15T05:37:29.177Z,5.05
2023-03-15T05:40:25.355Z,5.17
2023-03-15T05:43:07.441Z,5.19
2023-03-15T05:45:58.904Z,5.34
2023-03-15T05:49:07.604Z,5.47
2023-03-15T05:51:56.067Z,5.50
2023-03-15T05:54:50.522Z,5.15
2023-03-15T05:57:43.352Z,5.06
2023-03-15T06:00:34.851Z,4.92
2023-03-15T06:03:09.383Z,5.03
2023-03-15T06:05:51.052Z,4.91
2023-03-15T06:08:29.388Z,4.92
2023-03-15T06:11:02.474Z,5.01
2023-03-15T06:13:35.726Z,5.00
2023-03-15T06:16:13.299Z,5.09
2023-03-15T06:18:50.670Z,5.12
2023-03-15T06:21:25.980Z,4.87
2023-03-15T06:23:58.889Z,4.47
2023-03-15T06:26:31.647Z,4.85
2023-03-15T06:29:09.058Z,4.87
2023-03-15T06:31:42.155Z,4.74
2023-03-15T06:34:15.443Z,4.76
2023-03-15T06:36:49.550Z,4.77
2023-03-15T06:39:25.335Z,4.95
2023-03-15T06:42:02.577Z,4.97
2023-03-15T06:44:38.999Z,5.03
2023-03-15T06:47:12.496Z,4.93
2023-03-15T06:49:45.362Z,4.88
2023-03-15T06:52:20.675Z,4.70
2023-03-15T06:54:55.402Z,4.57
2023-03-15T06:57:28.506Z,4.81
2023-03-15T07:00:00.914Z,4.82
2023-03-15T07:02:37.762Z,4.72
2023-03-15T07:05:12.228Z,4.86
2023-03-15T07:07:44.928Z,4.74
2023-03-15T07:10:17.191Z,4.91
2023-03-15T07:12:49.638Z,4.84
2023-03-15T07:15:22.411Z,4.94
2023-03-15T07:17:55.255Z,5.16
2023-03-15T07:20:28.208Z,5.23
2023-03-15T07:23:01.019Z,5.16
2023-03-15T07:25:44.963Z,5.11
2023-03-15T07:28:25.995Z,5.37
2023-03-15T07:31:00.180Z,5.48
2023-03-15T07:33:35.972Z,5.34
2023-03-15T07:36:09.514Z,5.30
2023-03-15T07:38:43.368Z,5.38
2023-03-15T07:41:16.275Z,5.52
2023-03-15T07:43:58.604Z,5.65
2023-03-15T07:46:31.426Z,5.77
2023-03-15T07:49:04.331Z,5.91
2023-03-15T07:51:36.891Z,6.00
2023-03-15T07:54:09.400Z,6.09
2023-03-15T07:56:41.781Z,6.13
2023-03-15T07:59:14.247Z,6.22
2023-03-15T08:01:46.715Z,5.95
2023-03-15T08:04:19.654Z,6.21
2023-03-15T08:06:52.026Z,6.23
2023-03-15T08:09:25.075Z,6.07
2023-03-15T08:11:57.770Z,6.27
2023-03-15T08:14:31.718Z,6.19
2023-03-15T08:17:04.408Z,5.99
2023-03-15T08:19:37.419Z,6.02
2023-03-15T08:22:10.514Z,6.14
2023-03-15T08:24:43.004Z,6.29
2023-03-15T08:27:15.709Z,6.35
2023-03-15T08:29:48.196Z,6.42
2023-03-15T08:32:21.710Z,6.47
2023-03-15T08:34:54.326Z,6.46
2023-03-15T08:37:26.748Z,6.45
2023-03-15T08:40:01.252Z,6.43
2023-03-15T08:42:34.561Z,6.54
2023-03-15T08:45:08.784Z,6.44
2023-03-15T08:47:41.434Z,6.52
2023-03-15T08:50:17.215Z,6.64
2023-03-15T08:52:49.595Z,6.79
2023-03-15T08:55:22.126Z,6.81
2023-03-15T08:57:54.657Z,6.81
2023-03-15T09:00:27.899Z,6.86
2023-03-15T09:03:00.386Z,6.98
2023-03-15T09:05:33.448Z,6.96
2023-03-15T09:08:06.102Z,7.11
2023-03-15T09:10:38.511Z,7.02
2023-03-15T09:13:11.254Z,6.97
2023-03-15T09:15:43.748Z,7.18
2023-03-15T09:18:16.496Z,7.20
2023-03-15T09:20:49.477Z,7.21
2023-03-15T09:23:22.159Z,7.18
2023-03-15T09:25:54.625Z,7.26
2023-03-15T09:28:27.065Z,7.24
2023-03-15T09:31:00.211Z,7.43
2023-03-15T09:33:33.341Z,7.55
2023-03-15T09:36:06.610Z,7.47
2023-03-15T09:38:39.264Z,7.60
2023-03-15T09:41:21.529Z,7.47
2023-03-15T09:44:10.174Z,7.61
2023-03-15T09:46:53.206Z,7.89
2023-03-15T09:49:35.334Z,7.68
2023-03-15T09:52:17.821Z,7.61
2023-03-15T09:54:55.790Z,7.67
2023-03-15T09:57:37.997Z,7.70
2023-03-15T10:00:20.828Z,7.76
2023-03-15T10:03:01.646Z,8.02
2023-03-15T10:05:43.162Z,8.00
2023-03-15T10:08:19.295Z,8.07
2023-03-15T10:10:58.127Z,8.32
2023-03-15T10:13:42.496Z,8.39
2023-03-15T10:16:28.603Z,8.50
2023-03-15T10:19:15.067Z,8.70
2023-03-15T10:21:56.456Z,8.86
2023-03-15T10:24:39.027Z,8.54
2023-03-15T10:27:21.344Z,8.49
2023-03-15T10:29:56.709Z,8.70
2023-03-15T10:32:38.878Z,8.68
2023-03-15T10:35:17.726Z,8.79
2023-03-15T10:37:51.865Z,8.74
2023-03-15T10:40:41.489Z,8.76
2023-03-15T10:43:21.319Z,8.90
2023-03-15T10:46:05.412Z,8.84
2023-03-15T10:48:39.604Z,8.68
2023-03-15T10:51:21.548Z,8.42
2023-03-15T10:54:00.899Z,8.57
2023-03-15T10:56:37.210Z,8.47
2023-03-15T10:59:19.241Z,8.38
2023-03-15T11:01:55.432Z,8.42
2023-03-15T11:04:28.739Z,8.40
2023-03-15T11:07:07.743Z,8.31
2023-03-15T11:09:45.741Z,8.30
2023-03-15T11:12:25.815Z,8.28
2023-03-15T11:15:01.939Z,8.09
2023-03-15T11:17:43.080Z,8.06
2023-03-15T11:20:30.566Z,8.16
2023-03-15T11:23:07.360Z,8.26
2023-03-15T11:25:39.967Z,8.55
2023-03-15T11:28:20.507Z,8.49
2023-03-15T11:30:53.191Z,8.36
2023-03-15T11:33:34.991Z,8.28
2023-03-15T11:36:15.186Z,8.30
2023-03-15T11:38:48.559Z,8.33
2023-03-15T11:41:35.961Z,8.34
2023-03-15T11:44:19.703Z,8.35
2023-03-15T11:46:57.623Z,8.16
2023-03-15T11:49:37.988Z,8.16
2023-03-15T11:52:11.662Z,7.92
2023-03-15T11:54:45.169Z,7.97
2023-03-15T11:57:41.103Z,8.07
2023-03-15T12:00:35.690Z,7.96
2023-03-15T12:03:30.884Z,8.00
2023-03-15T12:06:06.981Z,8.02
2023-03-15T12:08:49.500Z,8.08
2023-03-15T12:11:43.009Z,7.80
2023-03-15T12:14:31.331Z,7.74
2023-03-15T12:17:42.715Z,7.59
2023-03-15T12:20:29.427Z,6.99
2023-03-15T12:23:22.552Z,7.25
2023-03-15T12:25:59.225Z,7.56
2023-03-15T12:28:36.849Z,8.01
2023-03-15T12:31:13.331Z,8.25
2023-03-15T12:33:52.377Z,8.42
2023-03-15T12:36:36.121Z,8.68
2023-03-15T12:39:39.814Z,8.74
2023-03-15T12:42:38.930Z,9.20
2023-03-15T12:45:37.664Z,9.13
2023-03-15T12:48:32.701Z,9.24
2023-03-15T12:51:16.191Z,9.34
2023-03-15T12:53:52.203Z,9.15
2023-03-15T12:56:55.427Z,9.11
2023-03-15T12:59:41.282Z,9.12
2023-03-15T13:02:42.173Z,8.95
2023-03-15T13:05:21.360Z,8.85
2023-03-15T13:08:18.864Z,8.92
2023-03-15T13:11:05.648Z,8.76
2023-03-15T13:13:56.708Z,8.60
2023-03-15T13:16:37.141Z,8.42
2023-03-15T13:19:23.642Z,8.17
2023-03-15T13:22:13.283Z,7.92
2023-03-15T13:24:52.703Z,7.58
2023-03-15T13:27:44.480Z,7.85
2023-03-15T13:30:36.151Z,7.89
2023-03-15T13:33:17.827Z,8.12
2023-03-15T13:35:56.547Z,8.29
2023-03-15T13:38:32.188Z,8.38
2023-03-15T13:41:06.672Z,8.60
2023-03-15T13:43:42.465Z,8.91
2023-03-15T13:46:15.028Z,9.00
2023-03-15T13:48:48.681Z,9.24
2023-03-15T13:51:25.465Z,9.31
2023-03-15T13:54:03.055Z,9.57
2023-03-15T13:56:49.143Z,9.84
2023-03-15T13:59:22.756Z,9.75
2023-03-15T14:01:55.873Z,9.60
2023-03-15T14:04:30.425Z,9.29
2023-03-15T14:07:24.074Z,9.24
2023-03-15T14:12:55.470Z,9.12
2023-03-15T14:15:37.074Z,9.08
2023-03-15T14:18:20.626Z,8.98
2023-03-15T14:21:01.675Z,8.90
2023-03-15T14:23:37.598Z,8.81
2023-03-15T14:26:19.079Z,8.67
2023-03-15T14:28:56.214Z,8.74
2023-03-15T14:31:34.741Z,8.67
2023-03-15T14:34:20.058Z,8.64
2023-03-15T14:36:59.996Z,8.70
2023-03-15T14:39:39.481Z,8.60
2023-03-15T14:42:14.521Z,8.54
2023-03-15T14:44:46.902Z,8.44
2023-03-15T14:47:20.820Z,8.62
2023-03-15T14:49:53.773Z,8.64
2023-03-15T14:52:27.690Z,8.75
2023-03-15T14:55:00.299Z,8.69
2023-03-15T14:57:32.991Z,8.72
2023-03-15T15:00:10.956Z,8.57
2023-03-15T15:02:44.848Z,8.49
2023-03-15T15:05:24.747Z,8.56
2023-03-15T15:08:04.533Z,8.58
2023-03-15T15:10:38.088Z,8.61
2023-03-15T15:13:16.267Z,8.58
2023-03-15T15:15:55.575Z,8.65
2023-03-15T15:18:31.152Z,8.65
2023-03-15T15:21:03.277Z,8.59
2023-03-15T15:23:54.912Z,8.55
2023-03-15T15:26:32.030Z,8.48
2023-03-15T15:29:04.954Z,8.52
2023-03-15T15:31:38.586Z,8.52
2023-03-15T15:34:12.151Z,8.53
2023-03-15T15:36:46.710Z,8.53
2023-03-15T15:39:22.916Z,8.51
2023-03-15T15:41:55.585Z,8.54
2023-03-15T15:44:28.088Z,8.44
2023-03-15T15:47:01.303Z,8.45
2023-03-15T15:49:34.242Z,8.56
2023-03-15T15:52:07.299Z,8.56
2023-03-15T15:54:39.764Z,8.49
2023-03-15T15:57:15.031Z,8.56
2023-03-15T15:59:47.926Z,8.47
2023-03-15T16:02:22.479Z,8.56
2023-03-15T16:04:53.723Z,8.38
2023-03-15T16:07:27.433Z,8.33
2023-03-15T16:10:01.854Z,8.29
2023-03-15T16:12:34.963Z,8.27
2023-03-15T16:15:08.850Z,8.32
2023-03-15T16:17:41.861Z,8.21
2023-03-15T16:20:17.003Z,8.25
2023-03-15T16:22:52.272Z,8.18
2023-03-15T16:25:29.862Z,8.10
2023-03-15T16:28:04.429Z,8.14
2023-03-15T16:30:37.445Z,8.09
2023-03-15T16:33:16.295Z,8.10
2023-03-15T16:35:50.592Z,8.14
2023-03-15T16:38:28.683Z,8.04
2023-03-15T16:41:02.976Z,8.07
2023-03-15T16:43:35.693Z,8.04
2023-03-15T16:51:28.417Z,8.03
2023-03-15T16:54:14.922Z,8.04
2023-03-15T16:56:49.478Z,8.03
2023-03-15T16:59:22.288Z,7.97
2023-03-15T17:01:55.112Z,7.92
2023-03-15T17:04:27.990Z,7.96
2023-03-15T17:07:01.569Z,7.95
2023-03-15T17:09:34.536Z,7.98
2023-03-15T17:12:07.942Z,7.95
2023-03-15T17:14:41.917Z,7.85
2023-03-15T17:17:15.301Z,7.85
2023-03-15T17:19:48.344Z,7.79
2023-03-15T17:22:22.790Z,7.75
2023-03-15T17:24:56.205Z,7.69
2023-03-15T17:27:34.179Z,7.71
2023-03-15T17:30:17.646Z,7.70
2023-03-15T17:32:54.851Z,7.64
2023-03-15T17:35:33.874Z,7.57
2023-03-15T17:38:14.989Z,7.46
2023-03-15T17:40:47.956Z,7.50
2023-03-15T17:43:21.425Z,7.46
2023-03-15T17:45:55.763Z,7.39
2023-03-15T17:48:30.278Z,7.32
2023-03-15T17:51:04.049Z,7.23
2023-03-15T17:53:37.268Z,7.16
2023-03-15T17:56:11.739Z,7.15
2023-03-15T17:58:47.150Z,7.16
2023-03-15T18:01:25.210Z,7.10
2023-03-15T18:03:58.815Z,7.06
2023-03-15T18:06:32.274Z,7.06
2023-03-15T18:09:05.638Z,7.04
2023-03-15T18:11:42.474Z,7.11
2023-03-15T18:14:19.026Z,7.08
2023-03-15T18:16:52.039Z,7.02
2023-03-15T18:19:25.558Z,6.95
2023-03-15T18:21:59.464Z,6.97
2023-03-15T18:24:34.514Z,6.94
2023-03-15T18:27:07.513Z,6.92
2023-03-15T18:29:40.724Z,6.90
2023-03-15T18:32:14.595Z,6.89
2023-03-15T18:34:47.347Z,6.89
2023-03-15T18:37:21.262Z,6.79
2023-03-15T18:39:54.951Z,6.71
2023-03-15T18:42:28.602Z,6.68
2023-03-15T18:45:01.605Z,6.76
2023-03-15T18:47:34.846Z,6.76
2023-03-15T18:50:10.888Z,6.65
2023-03-15T18:52:46.491Z,6.59
2023-03-15T18:55:23.810Z,6.57
2023-03-15T18:57:57.866Z,6.46
2023-03-15T19:00:36.238Z,6.49
2023-03-15T19:03:10.666Z,6.45
2023-03-15T19:05:44.399Z,6.36
2023-03-15T19:08:17.164Z,6.46
2023-03-15T19:10:51.502Z,6.51
2023-03-15T19:13:24.916Z,6.56
2023-03-15T19:15:58.120Z,6.60
2023-03-15T19:18:32.365Z,6.56
2023-03-15T19:21:05.126Z,6.55
2023-03-15T19:23:37.942Z,6.44
2023-03-15T19:26:11.005Z,6.48
2023-03-15T19:28:43.841Z,6.52
2023-03-15T19:31:16.529Z,6.50
2023-03-15T19:33:49.271Z,6.47
2023-03-15T19:36:22.212Z,6.39
2023-03-15T19:38:55.046Z,6.37
2023-03-15T19:41:27.923Z,6.44
2023-03-15T19:44:03.418Z,6.40
2023-03-15T19:46:39.630Z,6.40
2023-03-15T19:49:12.717Z,6.39
2023-03-15T19:51:45.346Z,6.39
2023-03-15T19:54:18.055Z,6.24
2023-03-15T19:56:50.964Z,6.35
2023-03-15T19:59:23.636Z,6.27
2023-03-15T20:01:57.025Z,6.19
2023-03-15T20:04:29.551Z,6.24
2023-03-15T20:07:02.445Z,6.28
2023-03-15T20:09:39.230Z,6.19
2023-03-15T20:12:14.460Z,6.16
2023-03-15T20:14:47.608Z,6.16
2023-03-15T20:17:21.754Z,6.12
2023-03-15T20:19:54.829Z,6.09
2023-03-15T20:22:27.832Z,6.05
2023-03-15T20:25:01.488Z,6.04
2023-03-15T20:27:36.459Z,6.08
2023-03-15T20:30:12.727Z,6.08
2023-03-15T20:32:45.775Z,6.06
2023-03-15T20:35:18.525Z,6.04
2023-03-15T20:37:53.161Z,6.00
2023-03-15T20:40:24.575Z,5.99
2023-03-15T20:42:57.712Z,5.95
2023-03-15T20:45:31.990Z,5.95
2023-03-15T20:48:05.246Z,5.92
2023-03-15T20:50:38.288Z,5.77
2023-03-15T20:53:11.403Z,5.77
2023-03-15T20:55:44.747Z,5.79
2023-03-15T20:58:17.795Z,5.80
2023-03-15T21:00:50.878Z,5.80
2023-03-15T21:03:24.287Z,5.77
2023-03-15T21:05:56.760Z,5.73
2023-03-15T21:08:29.649Z,5.70
2023-03-15T21:11:02.295Z,5.68
2023-03-15T21:13:36.806Z,5.63
2023-03-15T21:16:08.493Z,5.61
2023-03-15T21:18:47.909Z,5.52
2023-03-15T21:21:21.858Z,5.53
2023-03-15T21:23:54.982Z,5.53
2023-03-15T21:26:27.944Z,5.52
2023-03-15T21:29:00.640Z,5.50
2023-03-15T21:31:36.622Z,5.44
2023-03-15T21:34:09.731Z,5.45
2023-03-15T21:36:42.434Z,5.48
2023-03-15T21:39:14.972Z,5.48
2023-03-15T21:41:47.920Z,5.52
2023-03-15T21:44:21.178Z,5.54
2023-03-15T21:46:54.243Z,5.59
2023-03-15T21:49:28.335Z,5.57
2023-03-15T21:52:02.674Z,5.55
2023-03-15T21:54:36.569Z,5.55
2023-03-15T21:57:09.096Z,5.57
2023-03-15T21:59:42.791Z,5.55
2023-03-15T22:02:16.827Z,5.52
2023-03-15T22:04:49.509Z,5.55
2023-03-15T22:07:22.064Z,5.57
2023-03-15T22:09:54.556Z,5.52
2023-03-15T22:12:27.348Z,5.49
2023-03-15T22:15:05.730Z,5.49
2023-03-15T22:17:39.361Z,5.45
2023-03-15T22:20:16.812Z,5.43
2023-03-15T22:22:50.754Z,5.39
2023-03-15T22:25:23.323Z,5.38
2023-03-15T22:27:55.985Z,5.47
2023-03-15T22:30:28.521Z,5.50
2023-03-15T22:33:01.180Z,5.59
2023-03-15T22:35:33.798Z,5.55
2023-03-15T22:38:10.120Z,5.68
2023-03-15T22:40:44.094Z,5.69
2023-03-15T22:43:16.973Z,5.71
2023-03-15T22:45:49.420Z,5.74
2023-03-15T22:48:22.929Z,5.76
2023-03-15T22:51:00.952Z,5.78
2023-03-15T22:53:33.916Z,5.66
2023-03-15T22:56:06.764Z,5.62
2023-03-15T22:58:39.781Z,5.67
2023-03-15T23:01:12.323Z,5.70
2023-03-15T23:03:44.892Z,5.60
2023-03-15T23:06:17.318Z,5.67
2023-03-15T23:08:49.784Z,5.60
2023-03-15T23:11:22.239Z,5.54
2023-03-15T23:13:54.904Z,5.58
2023-03-15T23:16:29.901Z,5.66
2023-03-15T23:19:05.068Z,5.66
2023-03-15T23:21:38.062Z,5.61
2023-03-15T23:24:13.903Z,5.65
2023-03-15T23:26:46.429Z,5.57
2023-03-15T23:29:18.804Z,5.44
2023-03-15T23:31:51.293Z,5.48
2023-03-15T23:34:24.231Z,5.48
2023-03-15T23:36:56.874Z,5.44
2023-03-15T23:39:29.903Z,5.46
2023-03-15T23:42:02.339Z,5.47
2023-03-15T23:44:37.560Z,5.46
2023-03-15T23:47:12.424Z,5.45
2023-03-15T23:49:45.284Z,5.47
2023-03-15T23:52:18.607Z,5.46
2023-03-15T23:54:54.571Z,5.39
2023-03-15T23:57:28.508Z,5.36
